CheckWX is a tool to help pilots better visualize weather data.  It is not intended as a substitute for an official pre-flight weather briefing.

12:01:54 UTC

KELK METAR
Elk City Regional Business Airport
Elk City, Oklahoma, USA
Current

27 mins ago

KELK 251135Z AUTO 32004KT 10SM SCT100 07/06 A3021 RMK AO2 T00650055
Observed
Mar-25 @ 11:35 UTC
Wind
  • 320° at 4 KTS
Visibility
10 SM
Flight Rules
VFR
Cloud Levels
  • Scattered at 10,000' AGL
Temperature
C / 45°F
Dewpoint
C / 43°F
Humidity
93%
Altimeter
30.21" Hg
Pressure
1023.02 hPa
Previous

47 mins ago

KELK 251115Z AUTO 01006KT 10SM BKN100 07/06 A3020 RMK AO2 T00740060
Observed
Mar-25 @ 11:15 UTC
Wind
  • 010° at 6 KTS
Visibility
10 SM
Flight Rules
VFR
Cloud Levels
  • Broken at 10,000' AGL
Temperature
C / 45°F
Dewpoint
C / 43°F
Humidity
93%
Altimeter
30.2" Hg
Pressure
1022.72 hPa
Previous

1 hour ago

KELK 251055Z AUTO 01006KT 10SM SCT100 08/06 A3019 RMK AO2 T00780062
Observed
Mar-25 @ 10:55 UTC
Wind
  • 010° at 6 KTS
Visibility
10 SM
Flight Rules
VFR
Cloud Levels
  • Scattered at 10,000' AGL
Temperature
C / 46°F
Dewpoint
C / 43°F
Humidity
87%
Altimeter
30.19" Hg
Pressure
1022.32 hPa